sensor_id;sensor_type;location;lat;lon;timestamp;temperature;humidity
27858;DHT22;16852;51.446;6.528;2022-12-28T00:00:40;6.60;99.90
27858;DHT22;16852;51.446;6.528;2022-12-28T00:02:41;6.60;99.90
27858;DHT22;16852;51.446;6.528;2022-12-28T00:04:41;6.60;99.90
27858;DHT22;16852;51.446;6.528;2022-12-28T00:06:42;6.70;99.90
27858;DHT22;16852;51.446;6.528;2022-12-28T00:08:43;6.80;99.90
27858;DHT22;16852;51.446;6.528;2022-12-28T00:10:43;6.70;99.90
27858;DHT22;16852;51.446;6.528;2022-12-28T00:12:44;6.80;99.90
27858;DHT22;16852;51.446;6.528;2022-12-28T00:14:45;6.70;99.90
27858;DHT22;16852;51.446;6.528;2022-12-28T00:16:45;6.80;99.90
27858;DHT22;16852;51.446;6.528;2022-12-28T00:18:46;6.80;99.90
27858;DHT22;16852;51.446;6.528;2022-12-28T00:20:56;6.80;99.90
27858;DHT22;16852;51.446;6.528;2022-12-28T00:22:57;6.80;99.90
27858;DHT22;16852;51.446;6.528;2022-12-28T00:24:57;6.80;99.90
27858;DHT22;16852;51.446;6.528;2022-12-28T00:26:58;6.80;99.90
27858;DHT22;16852;51.446;6.528;2022-12-28T00:28:59;6.80;99.90
27858;DHT22;16852;51.446;6.528;2022-12-28T00:31:00;6.80;99.90
27858;DHT22;16852;51.446;6.528;2022-12-28T00:33:00;6.80;99.90
27858;DHT22;16852;51.446;6.528;2022-12-28T00:35:01;6.90;99.90
27858;DHT22;16852;51.446;6.528;2022-12-28T00:37:01;6.90;99.90
27858;DHT22;16852;51.446;6.528;2022-12-28T00:39:02;6.90;99.90
27858;DHT22;16852;51.446;6.528;2022-12-28T00:41:04;6.80;99.90
27858;DHT22;16852;51.446;6.528;2022-12-28T00:43:05;6.80;99.90
27858;DHT22;16852;51.446;6.528;2022-12-28T00:45:05;6.80;99.90
27858;DHT22;16852;51.446;6.528;2022-12-28T00:47:06;6.80;99.90
27858;DHT22;16852;51.446;6.528;2022-12-28T00:49:07;6.80;99.90
27858;DHT22;16852;51.446;6.528;2022-12-28T00:51:12;6.80;99.90
27858;DHT22;16852;51.446;6.528;2022-12-28T00:53:13;6.80;99.90
27858;DHT22;16852;51.446;6.528;2022-12-28T00:55:14;6.80;99.90
27858;DHT22;16852;51.446;6.528;2022-12-28T00:57:14;6.90;99.90
27858;DHT22;16852;51.446;6.528;2022-12-28T00:59:15;6.90;99.90
27858;DHT22;16852;51.446;6.528;2022-12-28T01:01:18;6.90;99.90
27858;DHT22;16852;51.446;6.528;2022-12-28T01:03:19;6.90;99.90
27858;DHT22;16852;51.446;6.528;2022-12-28T01:05:21;6.90;99.90
27858;DHT22;16852;51.446;6.528;2022-12-28T01:07:21;6.90;99.90
27858;DHT22;16852;51.446;6.528;2022-12-28T01:09:22;6.90;99.90
27858;DHT22;16852;51.446;6.528;2022-12-28T01:11:28;6.90;99.90
27858;DHT22;16852;51.446;6.528;2022-12-28T01:13:29;7.00;99.90
27858;DHT22;16852;51.446;6.528;2022-12-28T01:15:30;7.00;99.90
27858;DHT22;16852;51.446;6.528;2022-12-28T01:17:30;7.00;99.90
27858;DHT22;16852;51.446;6.528;2022-12-28T01:19:31;7.00;99.90
27858;DHT22;16852;51.446;6.528;2022-12-28T01:21:33;7.10;99.90
27858;DHT22;16852;51.446;6.528;2022-12-28T01:23:34;7.00;99.90
27858;DHT22;16852;51.446;6.528;2022-12-28T01:25:35;7.10;99.90
27858;DHT22;16852;51.446;6.528;2022-12-28T01:27:35;7.10;99.90
27858;DHT22;16852;51.446;6.528;2022-12-28T01:29:36;7.10;99.90
27858;DHT22;16852;51.446;6.528;2022-12-28T01:31:36;7.10;99.90
27858;DHT22;16852;51.446;6.528;2022-12-28T01:33:37;7.10;99.90
27858;DHT22;16852;51.446;6.528;2022-12-28T01:35:38;7.20;99.90
27858;DHT22;16852;51.446;6.528;2022-12-28T01:37:38;7.20;99.90
27858;DHT22;16852;51.446;6.528;2022-12-28T01:39:39;7.20;99.90
27858;DHT22;16852;51.446;6.528;2022-12-28T01:41:41;7.20;99.90
27858;DHT22;16852;51.446;6.528;2022-12-28T01:43:43;7.30;99.90
27858;DHT22;16852;51.446;6.528;2022-12-28T01:45:49;7.30;99.90
27858;DHT22;16852;51.446;6.528;2022-12-28T01:47:53;7.30;99.90
27858;DHT22;16852;51.446;6.528;2022-12-28T01:52:18;7.40;99.90
27858;DHT22;16852;51.446;6.528;2022-12-28T01:54:22;7.40;99.90
27858;DHT22;16852;51.446;6.528;2022-12-28T01:56:24;7.40;99.90
27858;DHT22;16852;51.446;6.528;2022-12-28T01:58:28;7.50;99.90
27858;DHT22;16852;51.446;6.528;2022-12-28T02:00:30;7.40;99.90
27858;DHT22;16852;51.446;6.528;2022-12-28T02:02:31;7.50;99.90
27858;DHT22;16852;51.446;6.528;2022-12-28T02:04:32;7.50;99.90
27858;DHT22;16852;51.446;6.528;2022-12-28T02:06:33;7.50;99.90
27858;DHT22;16852;51.446;6.528;2022-12-28T02:10:56;7.60;99.90
27858;DHT22;16852;51.446;6.528;2022-12-28T02:12:58;7.60;99.90
27858;DHT22;16852;51.446;6.528;2022-12-28T02:14:59;7.60;99.90
27858;DHT22;16852;51.446;6.528;2022-12-28T02:17:00;7.60;99.90
27858;DHT22;16852;51.446;6.528;2022-12-28T02:19:01;7.70;99.90
27858;DHT22;16852;51.446;6.528;2022-12-28T02:28:10;7.70;99.90
27858;DHT22;16852;51.446;6.528;2022-12-28T02:30:17;7.80;99.90
27858;DHT22;16852;51.446;6.528;2022-12-28T02:34:55;7.80;99.90
27858;DHT22;16852;51.446;6.528;2022-12-28T02:37:06;7.80;99.90
27858;DHT22;16852;51.446;6.528;2022-12-28T02:39:14;7.80;99.90
27858;DHT22;16852;51.446;6.528;2022-12-28T02:41:20;7.90;99.90
27858;DHT22;16852;51.446;6.528;2022-12-28T02:43:22;7.90;99.90
27858;DHT22;16852;51.446;6.528;2022-12-28T02:45:55;7.90;99.90
27858;DHT22;16852;51.446;6.528;2022-12-28T02:48:14;7.90;99.90
27858;DHT22;16852;51.446;6.528;2022-12-28T02:50:59;7.90;99.90
27858;DHT22;16852;51.446;6.528;2022-12-28T02:53:44;8.00;99.90
27858;DHT22;16852;51.446;6.528;2022-12-28T02:56:00;8.00;99.90
27858;DHT22;16852;51.446;6.528;2022-12-28T03:07:59;8.10;99.90
27858;DHT22;16852;51.446;6.528;2022-12-28T03:12:29;8.10;99.90
27858;DHT22;16852;51.446;6.528;2022-12-28T03:14:42;8.10;99.90
27858;DHT22;16852;51.446;6.528;2022-12-28T03:16:46;8.10;99.90
27858;DHT22;16852;51.446;6.528;2022-12-28T03:19:07;8.10;99.90
27858;DHT22;16852;51.446;6.528;2022-12-28T03:21:27;8.20;99.90
27858;DHT22;16852;51.446;6.528;2022-12-28T03:23:48;8.20;99.90
27858;DHT22;16852;51.446;6.528;2022-12-28T03:26:10;8.20;99.90
27858;DHT22;16852;51.446;6.528;2022-12-28T03:28:31;8.20;99.90
27858;DHT22;16852;51.446;6.528;2022-12-28T03:30:55;8.30;99.90
27858;DHT22;16852;51.446;6.528;2022-12-28T03:33:08;8.20;99.90
27858;DHT22;16852;51.446;6.528;2022-12-28T03:35:10;8.30;99.90
27858;DHT22;16852;51.446;6.528;2022-12-28T03:37:21;8.30;99.90
27858;DHT22;16852;51.446;6.528;2022-12-28T03:41:38;8.30;99.90
27858;DHT22;16852;51.446;6.528;2022-12-28T03:43:52;8.30;99.90
27858;DHT22;16852;51.446;6.528;2022-12-28T03:45:59;8.30;99.90
27858;DHT22;16852;51.446;6.528;2022-12-28T03:48:02;8.30;99.90
27858;DHT22;16852;51.446;6.528;2022-12-28T03:50:04;8.40;99.90
27858;DHT22;16852;51.446;6.528;2022-12-28T03:52:06;8.40;99.90
27858;DHT22;16852;51.446;6.528;2022-12-28T03:54:07;8.40;99.90
27858;DHT22;16852;51.446;6.528;2022-12-28T03:58:13;8.40;99.90
27858;DHT22;16852;51.446;6.528;2022-12-28T04:00:14;8.40;99.90
27858;DHT22;16852;51.446;6.528;2022-12-28T04:02:14;8.50;99.90
27858;DHT22;16852;51.446;6.528;2022-12-28T04:04:15;8.50;99.90
27858;DHT22;16852;51.446;6.528;2022-12-28T04:06:18;8.50;99.90
27858;DHT22;16852;51.446;6.528;2022-12-28T04:08:18;8.50;99.90
27858;DHT22;16852;51.446;6.528;2022-12-28T04:10:19;8.50;99.90
27858;DHT22;16852;51.446;6.528;2022-12-28T04:12:20;8.50;99.90
27858;DHT22;16852;51.446;6.528;2022-12-28T04:14:20;8.60;99.90
27858;DHT22;16852;51.446;6.528;2022-12-28T04:16:21;8.60;99.90
27858;DHT22;16852;51.446;6.528;2022-12-28T04:18:21;8.60;99.90
27858;DHT22;16852;51.446;6.528;2022-12-28T04:20:23;8.60;99.90
27858;DHT22;16852;51.446;6.528;2022-12-28T04:22:24;8.60;99.90
27858;DHT22;16852;51.446;6.528;2022-12-28T04:24:24;8.60;99.90
27858;DHT22;16852;51.446;6.528;2022-12-28T04:26:25;8.70;99.90
27858;DHT22;16852;51.446;6.528;2022-12-28T04:28:25;8.70;99.90
27858;DHT22;16852;51.446;6.528;2022-12-28T04:30:26;8.70;99.90
27858;DHT22;16852;51.446;6.528;2022-12-28T04:32:27;8.60;99.90
27858;DHT22;16852;51.446;6.528;2022-12-28T04:34:28;8.60;99.90
27858;DHT22;16852;51.446;6.528;2022-12-28T04:36:28;8.60;99.90
27858;DHT22;16852;51.446;6.528;2022-12-28T04:38:29;8.60;99.90
27858;DHT22;16852;51.446;6.528;2022-12-28T04:40:30;8.60;99.90
27858;DHT22;16852;51.446;6.528;2022-12-28T04:42:30;8.60;99.90
27858;DHT22;16852;51.446;6.528;2022-12-28T04:44:32;8.60;99.90
27858;DHT22;16852;51.446;6.528;2022-12-28T04:46:32;8.60;99.90
27858;DHT22;16852;51.446;6.528;2022-12-28T04:48:33;8.60;99.90
27858;DHT22;16852;51.446;6.528;2022-12-28T04:50:35;8.60;99.90
27858;DHT22;16852;51.446;6.528;2022-12-28T04:52:36;8.60;99.90
27858;DHT22;16852;51.446;6.528;2022-12-28T04:54:36;8.60;99.90
27858;DHT22;16852;51.446;6.528;2022-12-28T04:56:37;8.60;99.90
27858;DHT22;16852;51.446;6.528;2022-12-28T04:58:38;8.60;99.90
27858;DHT22;16852;51.446;6.528;2022-12-28T05:00:39;8.60;99.90
27858;DHT22;16852;51.446;6.528;2022-12-28T05:02:39;8.60;99.90
27858;DHT22;16852;51.446;6.528;2022-12-28T05:04:40;8.70;99.90
27858;DHT22;16852;51.446;6.528;2022-12-28T05:06:40;8.70;99.90
27858;DHT22;16852;51.446;6.528;2022-12-28T05:08:41;8.70;99.90
27858;DHT22;16852;51.446;6.528;2022-12-28T05:10:42;8.70;99.90
27858;DHT22;16852;51.446;6.528;2022-12-28T05:12:43;8.70;99.90
27858;DHT22;16852;51.446;6.528;2022-12-28T05:14:43;8.70;99.90
27858;DHT22;16852;51.446;6.528;2022-12-28T05:16:44;8.70;99.90
27858;DHT22;16852;51.446;6.528;2022-12-28T05:18:44;8.80;99.90
27858;DHT22;16852;51.446;6.528;2022-12-28T05:20:45;8.80;99.90
27858;DHT22;16852;51.446;6.528;2022-12-28T05:22:46;8.80;99.90
27858;DHT22;16852;51.446;6.528;2022-12-28T05:24:46;8.80;99.90
27858;DHT22;16852;51.446;6.528;2022-12-28T05:26:47;8.80;99.90
27858;DHT22;16852;51.446;6.528;2022-12-28T05:28:48;8.80;99.90
27858;DHT22;16852;51.446;6.528;2022-12-28T05:30:49;8.90;99.90
27858;DHT22;16852;51.446;6.528;2022-12-28T05:32:50;8.90;99.90
27858;DHT22;16852;51.446;6.528;2022-12-28T05:34:51;8.90;99.90
27858;DHT22;16852;51.446;6.528;2022-12-28T05:36:51;8.90;99.90
27858;DHT22;16852;51.446;6.528;2022-12-28T05:38:53;8.90;99.90
27858;DHT22;16852;51.446;6.528;2022-12-28T05:40:54;8.90;99.90
27858;DHT22;16852;51.446;6.528;2022-12-28T05:42:54;8.90;99.90
27858;DHT22;16852;51.446;6.528;2022-12-28T05:44:55;8.90;99.90
27858;DHT22;16852;51.446;6.528;2022-12-28T05:46:56;8.90;99.90
27858;DHT22;16852;51.446;6.528;2022-12-28T05:48:56;8.90;99.90
27858;DHT22;16852;51.446;6.528;2022-12-28T05:51:02;8.80;99.90
27858;DHT22;16852;51.446;6.528;2022-12-28T05:53:02;8.80;99.90
27858;DHT22;16852;51.446;6.528;2022-12-28T05:55:03;8.80;99.90
27858;DHT22;16852;51.446;6.528;2022-12-28T05:57:04;8.80;99.90
27858;DHT22;16852;51.446;6.528;2022-12-28T05:59:06;8.70;99.90
27858;DHT22;16852;51.446;6.528;2022-12-28T06:01:18;8.80;99.90
27858;DHT22;16852;51.446;6.528;2022-12-28T06:03:19;8.70;99.90
27858;DHT22;16852;51.446;6.528;2022-12-28T06:05:19;8.80;99.90
27858;DHT22;16852;51.446;6.528;2022-12-28T06:07:20;8.70;99.90
27858;DHT22;16852;51.446;6.528;2022-12-28T06:09:21;8.80;99.90
27858;DHT22;16852;51.446;6.528;2022-12-28T06:11:24;8.70;99.90
27858;DHT22;16852;51.446;6.528;2022-12-28T06:13:24;8.70;99.90
27858;DHT22;16852;51.446;6.528;2022-12-28T06:15:25;8.70;99.90
27858;DHT22;16852;51.446;6.528;2022-12-28T06:17:25;8.80;99.90
27858;DHT22;16852;51.446;6.528;2022-12-28T06:19:26;8.70;99.90
27858;DHT22;16852;51.446;6.528;2022-12-28T06:21:29;8.70;99.90
27858;DHT22;16852;51.446;6.528;2022-12-28T06:23:29;8.70;99.90
27858;DHT22;16852;51.446;6.528;2022-12-28T06:25:30;8.70;99.90
27858;DHT22;16852;51.446;6.528;2022-12-28T06:27:31;8.70;99.90
27858;DHT22;16852;51.446;6.528;2022-12-28T06:29:31;8.80;99.90
27858;DHT22;16852;51.446;6.528;2022-12-28T06:31:34;8.70;99.90
27858;DHT22;16852;51.446;6.528;2022-12-28T06:33:35;8.70;99.90
27858;DHT22;16852;51.446;6.528;2022-12-28T06:35:40;8.70;99.90
27858;DHT22;16852;51.446;6.528;2022-12-28T06:37:40;8.80;99.90
27858;DHT22;16852;51.446;6.528;2022-12-28T06:39:41;8.80;99.90
27858;DHT22;16852;51.446;6.528;2022-12-28T06:41:41;8.80;99.90
27858;DHT22;16852;51.446;6.528;2022-12-28T06:43:43;8.80;99.90
27858;DHT22;16852;51.446;6.528;2022-12-28T06:45:53;8.80;99.90
27858;DHT22;16852;51.446;6.528;2022-12-28T06:47:54;8.80;99.90
27858;DHT22;16852;51.446;6.528;2022-12-28T06:49:55;8.80;99.90
27858;DHT22;16852;51.446;6.528;2022-12-28T06:51:55;8.70;99.90
27858;DHT22;16852;51.446;6.528;2022-12-28T06:53:56;8.70;99.90
27858;DHT22;16852;51.446;6.528;2022-12-28T06:55:59;8.70;99.90
27858;DHT22;16852;51.446;6.528;2022-12-28T06:58:00;8.70;99.90
27858;DHT22;16852;51.446;6.528;2022-12-28T07:00:01;8.80;99.90
27858;DHT22;16852;51.446;6.528;2022-12-28T07:02:01;8.80;99.90
27858;DHT22;16852;51.446;6.528;2022-12-28T07:04:04;8.70;99.90
27858;DHT22;16852;51.446;6.528;2022-12-28T07:06:05;8.70;99.90
27858;DHT22;16852;51.446;6.528;2022-12-28T07:08:05;8.80;99.90
27858;DHT22;16852;51.446;6.528;2022-12-28T07:10:06;8.80;99.90
27858;DHT22;16852;51.446;6.528;2022-12-28T07:12:07;8.70;99.90
27858;DHT22;16852;51.446;6.528;2022-12-28T07:14:07;8.80;99.90
27858;DHT22;16852;51.446;6.528;2022-12-28T07:16:28;8.70;99.90
27858;DHT22;16852;51.446;6.528;2022-12-28T07:18:29;8.80;99.90
27858;DHT22;16852;51.446;6.528;2022-12-28T07:20:30;8.80;99.90
27858;DHT22;16852;51.446;6.528;2022-12-28T07:22:31;8.80;99.90
27858;DHT22;16852;51.446;6.528;2022-12-28T07:24:31;8.80;99.90
27858;DHT22;16852;51.446;6.528;2022-12-28T07:26:34;8.80;99.90
27858;DHT22;16852;51.446;6.528;2022-12-28T07:28:35;8.80;99.90
27858;DHT22;16852;51.446;6.528;2022-12-28T07:30:36;8.80;99.90
27858;DHT22;16852;51.446;6.528;2022-12-28T07:32:37;8.80;99.90
27858;DHT22;16852;51.446;6.528;2022-12-28T07:34:38;8.80;99.90
27858;DHT22;16852;51.446;6.528;2022-12-28T07:36:38;8.80;99.90
27858;DHT22;16852;51.446;6.528;2022-12-28T07:38:39;8.90;99.90
27858;DHT22;16852;51.446;6.528;2022-12-28T07:40:40;8.80;99.90
27858;DHT22;16852;51.446;6.528;2022-12-28T07:42:40;8.80;99.90
27858;DHT22;16852;51.446;6.528;2022-12-28T07:44:41;8.90;99.90
27858;DHT22;16852;51.446;6.528;2022-12-28T07:46:42;8.90;99.90
27858;DHT22;16852;51.446;6.528;2022-12-28T07:48:43;8.90;99.90
27858;DHT22;16852;51.446;6.528;2022-12-28T07:50:44;8.90;99.90
27858;DHT22;16852;51.446;6.528;2022-12-28T07:52:44;8.90;99.90
27858;DHT22;16852;51.446;6.528;2022-12-28T07:54:45;8.90;99.90
27858;DHT22;16852;51.446;6.528;2022-12-28T07:56:45;8.90;99.90
27858;DHT22;16852;51.446;6.528;2022-12-28T07:58:48;9.00;99.90
27858;DHT22;16852;51.446;6.528;2022-12-28T08:00:49;9.00;99.90
27858;DHT22;16852;51.446;6.528;2022-12-28T08:02:54;9.00;99.90
27858;DHT22;16852;51.446;6.528;2022-12-28T08:04:55;9.00;99.90
27858;DHT22;16852;51.446;6.528;2022-12-28T08:06:55;9.00;99.90
27858;DHT22;16852;51.446;6.528;2022-12-28T08:08:58;9.10;99.90
27858;DHT22;16852;51.446;6.528;2022-12-28T08:11:07;9.10;99.90
27858;DHT22;16852;51.446;6.528;2022-12-28T08:13:09;9.10;99.90
27858;DHT22;16852;51.446;6.528;2022-12-28T08:15:10;9.10;99.90
27858;DHT22;16852;51.446;6.528;2022-12-28T08:17:11;9.10;99.90
27858;DHT22;16852;51.446;6.528;2022-12-28T08:19:11;9.20;99.90
27858;DHT22;16852;51.446;6.528;2022-12-28T08:21:17;9.20;99.90
27858;DHT22;16852;51.446;6.528;2022-12-28T08:23:17;9.20;99.90
27858;DHT22;16852;51.446;6.528;2022-12-28T08:25:18;9.20;99.90
27858;DHT22;16852;51.446;6.528;2022-12-28T08:27:19;9.20;99.90
27858;DHT22;16852;51.446;6.528;2022-12-28T08:29:20;9.20;99.90
27858;DHT22;16852;51.446;6.528;2022-12-28T08:31:23;9.20;99.90
27858;DHT22;16852;51.446;6.528;2022-12-28T08:33:24;9.20;99.90
27858;DHT22;16852;51.446;6.528;2022-12-28T08:35:25;9.20;99.90
27858;DHT22;16852;51.446;6.528;2022-12-28T08:37:25;9.20;99.90
27858;DHT22;16852;51.446;6.528;2022-12-28T08:39:26;9.30;99.90
27858;DHT22;16852;51.446;6.528;2022-12-28T08:41:27;9.30;99.90
27858;DHT22;16852;51.446;6.528;2022-12-28T08:43:29;9.30;99.90
27858;DHT22;16852;51.446;6.528;2022-12-28T08:45:30;9.30;99.90
27858;DHT22;16852;51.446;6.528;2022-12-28T08:47:31;9.30;99.90
27858;DHT22;16852;51.446;6.528;2022-12-28T08:49:31;9.30;99.90
27858;DHT22;16852;51.446;6.528;2022-12-28T08:51:33;9.30;99.90
27858;DHT22;16852;51.446;6.528;2022-12-28T08:53:35;9.30;99.90
27858;DHT22;16852;51.446;6.528;2022-12-28T08:55:36;9.30;99.90
27858;DHT22;16852;51.446;6.528;2022-12-28T08:57:36;9.30;99.90
27858;DHT22;16852;51.446;6.528;2022-12-28T08:59:37;9.30;99.90
27858;DHT22;16852;51.446;6.528;2022-12-28T09:01:38;9.40;99.90
27858;DHT22;16852;51.446;6.528;2022-12-28T09:03:45;9.40;99.90
27858;DHT22;16852;51.446;6.528;2022-12-28T09:05:46;9.40;99.90
27858;DHT22;16852;51.446;6.528;2022-12-28T09:07:46;9.40;99.90
27858;DHT22;16852;51.446;6.528;2022-12-28T09:09:47;9.40;99.90
27858;DHT22;16852;51.446;6.528;2022-12-28T09:11:48;9.40;99.90
27858;DHT22;16852;51.446;6.528;2022-12-28T09:13:49;9.40;99.90
27858;DHT22;16852;51.446;6.528;2022-12-28T09:15:57;9.40;99.90
27858;DHT22;16852;51.446;6.528;2022-12-28T09:17:58;9.50;99.90
27858;DHT22;16852;51.446;6.528;2022-12-28T09:19:59;9.50;99.90
27858;DHT22;16852;51.446;6.528;2022-12-28T09:21:59;9.50;99.90
27858;DHT22;16852;51.446;6.528;2022-12-28T09:24:00;9.50;99.90
27858;DHT22;16852;51.446;6.528;2022-12-28T09:26:13;9.50;99.90
27858;DHT22;16852;51.446;6.528;2022-12-28T09:28:14;9.50;99.90
27858;DHT22;16852;51.446;6.528;2022-12-28T09:30:14;9.50;99.90
27858;DHT22;16852;51.446;6.528;2022-12-28T09:32:15;9.60;99.90
27858;DHT22;16852;51.446;6.528;2022-12-28T09:34:16;9.60;99.90
27858;DHT22;16852;51.446;6.528;2022-12-28T09:36:17;9.60;99.90
27858;DHT22;16852;51.446;6.528;2022-12-28T09:38:18;9.60;99.90
27858;DHT22;16852;51.446;6.528;2022-12-28T09:40:20;9.60;99.90
27858;DHT22;16852;51.446;6.528;2022-12-28T09:42:23;9.60;99.90
27858;DHT22;16852;51.446;6.528;2022-12-28T09:44:47;9.70;99.90
27858;DHT22;16852;51.446;6.528;2022-12-28T09:47:11;9.70;99.90
27858;DHT22;16852;51.446;6.528;2022-12-28T09:49:17;9.60;99.90
27858;DHT22;16852;51.446;6.528;2022-12-28T09:51:26;9.70;99.90
27858;DHT22;16852;51.446;6.528;2022-12-28T09:53:29;9.70;99.90
27858;DHT22;16852;51.446;6.528;2022-12-28T09:55:33;9.70;99.90
27858;DHT22;16852;51.446;6.528;2022-12-28T09:57:37;9.70;99.90
27858;DHT22;16852;51.446;6.528;2022-12-28T09:59:38;9.70;99.90
27858;DHT22;16852;51.446;6.528;2022-12-28T10:01:42;9.80;99.90
27858;DHT22;16852;51.446;6.528;2022-12-28T10:03:44;9.80;99.90
27858;DHT22;16852;51.446;6.528;2022-12-28T10:05:45;9.80;99.90
27858;DHT22;16852;51.446;6.528;2022-12-28T10:07:46;9.80;99.90
27858;DHT22;16852;51.446;6.528;2022-12-28T10:09:47;9.80;99.90
27858;DHT22;16852;51.446;6.528;2022-12-28T10:11:48;9.90;99.90
27858;DHT22;16852;51.446;6.528;2022-12-28T10:13:54;9.80;99.90
27858;DHT22;16852;51.446;6.528;2022-12-28T10:15:55;9.90;99.90
27858;DHT22;16852;51.446;6.528;2022-12-28T10:17:56;9.90;99.90
27858;DHT22;16852;51.446;6.528;2022-12-28T10:19:58;9.80;99.90
27858;DHT22;16852;51.446;6.528;2022-12-28T10:22:04;9.90;99.90
27858;DHT22;16852;51.446;6.528;2022-12-28T10:24:06;9.90;99.90
27858;DHT22;16852;51.446;6.528;2022-12-28T10:26:13;9.90;99.90
27858;DHT22;16852;51.446;6.528;2022-12-28T10:28:15;9.90;99.90
27858;DHT22;16852;51.446;6.528;2022-12-28T10:30:22;9.90;99.90
27858;DHT22;16852;51.446;6.528;2022-12-28T10:32:26;9.90;99.90
27858;DHT22;16852;51.446;6.528;2022-12-28T10:34:28;10.00;99.90
27858;DHT22;16852;51.446;6.528;2022-12-28T10:36:32;9.90;99.90
27858;DHT22;16852;51.446;6.528;2022-12-28T10:38:36;9.90;99.90
27858;DHT22;16852;51.446;6.528;2022-12-28T10:40:38;10.00;99.90
27858;DHT22;16852;51.446;6.528;2022-12-28T10:42:42;10.00;99.90
27858;DHT22;16852;51.446;6.528;2022-12-28T10:44:43;10.00;99.90
27858;DHT22;16852;51.446;6.528;2022-12-28T10:46:57;10.00;99.90
27858;DHT22;16852;51.446;6.528;2022-12-28T10:49:00;10.00;99.90
27858;DHT22;16852;51.446;6.528;2022-12-28T10:51:24;10.10;99.90
27858;DHT22;16852;51.446;6.528;2022-12-28T10:53:45;10.10;99.90
27858;DHT22;16852;51.446;6.528;2022-12-28T10:55:46;10.10;99.90
27858;DHT22;16852;51.446;6.528;2022-12-28T10:57:46;10.10;99.90
27858;DHT22;16852;51.446;6.528;2022-12-28T10:59:47;10.10;99.90
27858;DHT22;16852;51.446;6.528;2022-12-28T11:01:49;10.10;99.90
27858;DHT22;16852;51.446;6.528;2022-12-28T11:06:18;10.10;99.90
27858;DHT22;16852;51.446;6.528;2022-12-28T11:08:19;10.20;99.90
27858;DHT22;16852;51.446;6.528;2022-12-28T11:10:26;10.20;99.90
27858;DHT22;16852;51.446;6.528;2022-12-28T11:12:27;10.20;99.90
27858;DHT22;16852;51.446;6.528;2022-12-28T11:14:33;10.20;99.90
27858;DHT22;16852;51.446;6.528;2022-12-28T11:16:35;10.20;99.90
27858;DHT22;16852;51.446;6.528;2022-12-28T11:18:37;10.30;99.90
27858;DHT22;16852;51.446;6.528;2022-12-28T11:20:42;10.20;99.90
27858;DHT22;16852;51.446;6.528;2022-12-28T11:22:45;10.30;99.90
27858;DHT22;16852;51.446;6.528;2022-12-28T11:24:45;10.30;99.90
27858;DHT22;16852;51.446;6.528;2022-12-28T11:26:48;10.30;99.90
27858;DHT22;16852;51.446;6.528;2022-12-28T11:28:50;10.30;99.90
27858;DHT22;16852;51.446;6.528;2022-12-28T11:30:52;10.20;99.90
27858;DHT22;16852;51.446;6.528;2022-12-28T11:32:58;10.30;99.90
27858;DHT22;16852;51.446;6.528;2022-12-28T11:34:59;10.20;99.90
27858;DHT22;16852;51.446;6.528;2022-12-28T11:37:00;10.20;99.90
27858;DHT22;16852;51.446;6.528;2022-12-28T11:45:51;10.20;99.90
27858;DHT22;16852;51.446;6.528;2022-12-28T11:52:45;10.20;99.90
27858;DHT22;16852;51.446;6.528;2022-12-28T11:54:53;10.20;99.90
27858;DHT22;16852;51.446;6.528;2022-12-28T12:00:58;10.20;99.90
27858;DHT22;16852;51.446;6.528;2022-12-28T12:03:00;10.20;99.90
27858;DHT22;16852;51.446;6.528;2022-12-28T12:07:46;10.30;99.90
27858;DHT22;16852;51.446;6.528;2022-12-28T12:10:03;10.30;99.90
27858;DHT22;16852;51.446;6.528;2022-12-28T12:14:22;10.30;99.90
27858;DHT22;16852;51.446;6.528;2022-12-28T12:16:46;10.40;99.90
27858;DHT22;16852;51.446;6.528;2022-12-28T12:18:53;10.40;99.90
27858;DHT22;16852;51.446;6.528;2022-12-28T12:20:59;10.40;99.90
27858;DHT22;16852;51.446;6.528;2022-12-28T12:23:06;10.40;99.90
27858;DHT22;16852;51.446;6.528;2022-12-28T12:25:34;10.40;99.90
27858;DHT22;16852;51.446;6.528;2022-12-28T12:27:40;10.40;99.90
27858;DHT22;16852;51.446;6.528;2022-12-28T12:29:44;10.40;99.90
27858;DHT22;16852;51.446;6.528;2022-12-28T12:34:01;10.40;99.90
27858;DHT22;16852;51.446;6.528;2022-12-28T12:36:23;10.40;99.90
27858;DHT22;16852;51.446;6.528;2022-12-28T12:40:53;10.40;99.90
27858;DHT22;16852;51.446;6.528;2022-12-28T12:43:20;10.40;99.90
27858;DHT22;16852;51.446;6.528;2022-12-28T12:45:45;10.40;99.90
27858;DHT22;16852;51.446;6.528;2022-12-28T12:50:49;10.40;99.90
27858;DHT22;16852;51.446;6.528;2022-12-28T12:53:12;10.40;99.90
27858;DHT22;16852;51.446;6.528;2022-12-28T12:55:37;10.40;99.90
27858;DHT22;16852;51.446;6.528;2022-12-28T12:58:00;10.40;99.90
27858;DHT22;16852;51.446;6.528;2022-12-28T13:00:11;10.40;99.90
27858;DHT22;16852;51.446;6.528;2022-12-28T13:04:35;10.40;99.90
27858;DHT22;16852;51.446;6.528;2022-12-28T13:06:37;10.40;99.90
27858;DHT22;16852;51.446;6.528;2022-12-28T13:10:46;10.40;99.90
27858;DHT22;16852;51.446;6.528;2022-12-28T13:12:48;10.40;99.90
27858;DHT22;16852;51.446;6.528;2022-12-28T13:15:13;10.30;99.90
27858;DHT22;16852;51.446;6.528;2022-12-28T13:17:19;10.40;99.90
27858;DHT22;16852;51.446;6.528;2022-12-28T13:19:23;10.40;99.90
27858;DHT22;16852;51.446;6.528;2022-12-28T13:21:26;10.40;99.90
27858;DHT22;16852;51.446;6.528;2022-12-28T13:23:29;10.40;99.90
27858;DHT22;16852;51.446;6.528;2022-12-28T13:25:32;10.40;99.90
27858;DHT22;16852;51.446;6.528;2022-12-28T13:27:34;10.40;99.90
27858;DHT22;16852;51.446;6.528;2022-12-28T13:29:38;10.40;99.90
27858;DHT22;16852;51.446;6.528;2022-12-28T13:31:40;10.40;99.90
27858;DHT22;16852;51.446;6.528;2022-12-28T13:33:41;10.40;99.90
27858;DHT22;16852;51.446;6.528;2022-12-28T13:35:42;10.40;99.90
27858;DHT22;16852;51.446;6.528;2022-12-28T13:37:42;10.40;99.90
27858;DHT22;16852;51.446;6.528;2022-12-28T13:39:43;10.40;99.90
27858;DHT22;16852;51.446;6.528;2022-12-28T13:41:51;10.40;99.90
27858;DHT22;16852;51.446;6.528;2022-12-28T13:46:16;10.40;99.90
27858;DHT22;16852;51.446;6.528;2022-12-28T13:48:18;10.40;99.90
27858;DHT22;16852;51.446;6.528;2022-12-28T13:50:22;10.40;99.90
27858;DHT22;16852;51.446;6.528;2022-12-28T13:52:40;10.40;99.90
27858;DHT22;16852;51.446;6.528;2022-12-28T13:54:46;10.40;99.90
27858;DHT22;16852;51.446;6.528;2022-12-28T13:56:47;10.50;99.90
27858;DHT22;16852;51.446;6.528;2022-12-28T13:58:57;10.40;99.90
27858;DHT22;16852;51.446;6.528;2022-12-28T14:01:02;10.40;99.90
27858;DHT22;16852;51.446;6.528;2022-12-28T14:03:07;10.40;99.90
27858;DHT22;16852;51.446;6.528;2022-12-28T14:05:16;10.40;99.90
27858;DHT22;16852;51.446;6.528;2022-12-28T14:07:18;10.40;99.90
27858;DHT22;16852;51.446;6.528;2022-12-28T14:09:19;10.40;99.90
27858;DHT22;16852;51.446;6.528;2022-12-28T14:11:21;10.40;99.90
27858;DHT22;16852;51.446;6.528;2022-12-28T14:13:22;10.40;99.90
27858;DHT22;16852;51.446;6.528;2022-12-28T14:15:24;10.40;99.90
27858;DHT22;16852;51.446;6.528;2022-12-28T14:17:25;10.40;99.90
27858;DHT22;16852;51.446;6.528;2022-12-28T14:19:27;10.50;99.90